createdAt,value
2019-04-16T00:00:12.802Z,11.42
2019-04-16T00:01:15.022Z,11.41
2019-04-16T00:02:10.937Z,11.39
2019-04-16T00:03:10.940Z,11.38
2019-04-16T00:04:10.931Z,11.35
2019-04-16T00:05:11.155Z,11.37
2019-04-16T00:06:10.892Z,11.32
2019-04-16T00:07:10.906Z,11.32
2019-04-16T00:08:28.353Z,11.32
2019-04-16T00:09:10.924Z,11.3
2019-04-16T00:10:10.885Z,11.3
2019-04-16T00:11:10.892Z,11.25
2019-04-16T00:12:10.898Z,11.25
2019-04-16T00:13:10.973Z,11.24
2019-04-16T00:14:10.904Z,11.24
2019-04-16T00:15:10.930Z,11.22
2019-04-16T00:16:13.829Z,11.2
2019-04-16T00:17:16.550Z,11.18
2019-04-16T00:18:10.970Z,11.18
2019-04-16T00:19:10.928Z,11.14
2019-04-16T00:20:10.908Z,11.15
2019-04-16T00:21:10.922Z,11.1
2019-04-16T00:22:12.633Z,11.08
2019-04-16T00:23:10.969Z,11.1
2019-04-16T00:24:10.933Z,11.06
2019-04-16T00:25:10.914Z,11.06
2019-04-16T00:26:10.989Z,11.06
2019-04-16T00:27:10.905Z,11.04
2019-04-16T00:28:10.900Z,10.97
2019-04-16T00:29:10.952Z,10.94
2019-04-16T00:30:10.885Z,10.9
2019-04-16T00:31:10.929Z,10.87
2019-04-16T00:32:10.864Z,10.83
2019-04-16T00:33:11.702Z,10.82
2019-04-16T00:34:14.678Z,10.82
2019-04-16T00:35:16.509Z,10.79
2019-04-16T00:36:10.910Z,10.8
2019-04-16T00:37:10.915Z,10.8
2019-04-16T00:38:10.898Z,10.79
2019-04-16T00:39:10.863Z,10.75
2019-04-16T00:40:10.892Z,10.78
2019-04-16T00:41:10.904Z,10.76
2019-04-16T00:42:10.938Z,10.75
2019-04-16T00:43:10.882Z,10.78
2019-04-16T00:44:10.850Z,10.78
2019-04-16T00:45:10.952Z,10.76
2019-04-16T00:46:12.338Z,10.71
2019-04-16T00:47:10.834Z,10.71
2019-04-16T00:48:11.030Z,10.72
2019-04-16T00:49:10.939Z,10.68
2019-04-16T00:50:10.836Z,10.71
2019-04-16T00:51:10.866Z,10.69
2019-04-16T00:52:10.901Z,10.69
2019-04-16T00:53:10.881Z,10.66
2019-04-16T00:54:11.574Z,10.65
2019-04-16T00:55:14.906Z,10.64
2019-04-16T00:56:16.867Z,10.64
2019-04-16T00:57:10.848Z,10.64
2019-04-16T00:58:10.954Z,10.66
2019-04-16T00:59:10.847Z,10.65
2019-04-16T01:00:10.897Z,10.65
2019-04-16T01:01:11.747Z,10.66
2019-04-16T01:02:10.818Z,10.64
2019-04-16T01:03:10.873Z,10.66
2019-04-16T01:04:10.876Z,10.64
2019-04-16T01:05:10.845Z,10.59
2019-04-16T01:06:10.811Z,10.56
2019-04-16T01:07:10.930Z,10.55
2019-04-16T01:08:10.897Z,10.52
2019-04-16T01:09:11.775Z,10.53
2019-04-16T01:10:10.997Z,10.47
2019-04-16T01:11:10.949Z,10.44
2019-04-16T01:12:10.816Z,10.44
2019-04-16T01:13:10.881Z,10.44
2019-04-16T01:14:10.842Z,10.47
2019-04-16T01:15:10.835Z,10.42
2019-04-16T01:16:10.823Z,10.38
2019-04-16T01:17:10.867Z,10.39
2019-04-16T01:18:10.844Z,10.38
2019-04-16T01:19:13.775Z,10.39
2019-04-16T01:20:13.327Z,10.39
2019-04-16T01:21:15.074Z,10.39
2019-04-16T01:22:16.907Z,10.34
2019-04-16T01:23:10.839Z,10.32
2019-04-16T01:24:10.822Z,10.32
2019-04-16T01:25:10.818Z,10.31
2019-04-16T01:26:10.801Z,10.27
2019-04-16T01:27:10.871Z,10.27
2019-04-16T01:28:10.791Z,10.27
2019-04-16T01:29:10.847Z,10.3
2019-04-16T01:30:10.847Z,10.3
2019-04-16T01:31:10.933Z,10.27
2019-04-16T01:32:12.221Z,10.28
2019-04-16T01:33:15.461Z,10.3
2019-04-16T01:34:10.769Z,10.3
2019-04-16T01:35:10.791Z,10.28
2019-04-16T01:36:10.784Z,10.28
2019-04-16T01:37:10.797Z,10.27
2019-04-16T01:38:10.783Z,10.25
2019-04-16T01:39:18.406Z,10.24
2019-04-16T01:40:10.758Z,10.24
2019-04-16T01:41:10.811Z,10.24
2019-04-16T01:42:10.817Z,10.19
2019-04-16T01:43:11.829Z,10.17
2019-04-16T01:44:10.765Z,10.13
2019-04-16T01:45:10.853Z,10.1
2019-04-16T01:46:10.809Z,10.11
2019-04-16T01:47:10.783Z,10.11
2019-04-16T01:48:10.787Z,10.06
2019-04-16T01:49:11.696Z,10.09
2019-04-16T01:50:14.187Z,10.11
2019-04-16T01:51:16.273Z,10.09
2019-04-16T01:52:10.792Z,10.1
2019-04-16T01:53:11.111Z,10.07
2019-04-16T01:54:11.117Z,10.02
2019-04-16T01:55:11.110Z,10.03
2019-04-16T01:56:11.109Z,10
2019-04-16T01:57:10.794Z,9.99
2019-04-16T01:58:10.738Z,9.99
2019-04-16T01:59:10.759Z,10
2019-04-16T02:00:10.816Z,9.99
2019-04-16T02:01:12.505Z,9.97
2019-04-16T02:02:16.066Z,10
2019-04-16T02:03:10.825Z,9.99
2019-04-16T02:04:10.760Z,9.97
2019-04-16T02:05:10.783Z,9.93
2019-04-16T02:06:10.730Z,9.97
2019-04-16T02:07:10.765Z,9.94
2019-04-16T02:08:10.795Z,9.97
2019-04-16T02:09:23.219Z,9.99
2019-04-16T02:10:11.023Z,9.99
2019-04-16T02:11:11.544Z,9.97
2019-04-16T02:12:14.223Z,10
2019-04-16T02:13:16.032Z,9.99
2019-04-16T02:14:10.770Z,10.02
2019-04-16T02:15:10.732Z,9.99
2019-04-16T02:16:10.731Z,10
2019-04-16T02:17:10.737Z,10
2019-04-16T02:18:10.797Z,9.99
2019-04-16T02:19:10.758Z,9.93
2019-04-16T02:20:10.755Z,9.94
2019-04-16T02:21:11.509Z,9.94
2019-04-16T02:22:14.196Z,9.96
2019-04-16T02:23:17.428Z,9.92
2019-04-16T02:24:10.702Z,9.94
2019-04-16T02:25:10.727Z,9.94
2019-04-16T02:26:10.747Z,9.94
2019-04-16T02:27:10.754Z,9.93
2019-04-16T02:28:10.729Z,9.92
2019-04-16T02:29:10.735Z,9.9
2019-04-16T02:30:10.876Z,9.88
2019-04-16T02:31:16.525Z,9.89
2019-04-16T02:32:10.747Z,9.86
2019-04-16T02:33:10.945Z,9.88
2019-04-16T02:34:10.981Z,9.88
2019-04-16T02:35:11.017Z,9.85
2019-04-16T02:36:10.971Z,9.86
2019-04-16T02:37:10.933Z,9.85
2019-04-16T02:38:14.468Z,9.83
2019-04-16T02:39:10.696Z,9.82
2019-04-16T02:40:19.126Z,9.81
2019-04-16T02:41:10.695Z,9.82
2019-04-16T02:42:11.030Z,9.83
2019-04-16T02:43:10.695Z,9.85
2019-04-16T02:44:17.252Z,9.83
2019-04-16T02:45:10.705Z,9.82
2019-04-16T02:46:10.699Z,9.78
2019-04-16T02:47:10.696Z,9.81
2019-04-16T02:48:17.379Z,9.79
2019-04-16T02:49:10.733Z,9.78
2019-04-16T02:50:10.730Z,9.78
2019-04-16T02:51:10.697Z,9.73
2019-04-16T02:52:17.483Z,9.73
2019-04-16T02:53:10.684Z,9.72
2019-04-16T02:54:10.722Z,9.68
2019-04-16T02:55:11.913Z,9.66
2019-04-16T02:56:19.387Z,9.7
2019-04-16T02:57:11.109Z,9.7
2019-04-16T02:58:10.728Z,9.66
2019-04-16T02:59:14.220Z,9.68
2019-04-16T03:00:10.654Z,9.66
2019-04-16T03:01:10.685Z,9.66
2019-04-16T03:02:10.693Z,9.66
2019-04-16T03:03:10.691Z,9.65
2019-04-16T03:04:10.687Z,9.62
2019-04-16T03:05:10.667Z,9.63
2019-04-16T03:06:10.674Z,9.62
2019-04-16T03:07:10.717Z,9.61
2019-04-16T03:08:11.025Z,9.58
2019-04-16T03:09:10.645Z,9.59
2019-04-16T03:10:14.332Z,9.59
2019-04-16T03:11:10.660Z,9.59
2019-04-16T03:12:10.638Z,9.62
2019-04-16T03:13:10.769Z,9.59
2019-04-16T03:14:10.685Z,9.61
2019-04-16T03:15:10.661Z,9.58
2019-04-16T03:16:10.753Z,9.55
2019-04-16T03:17:12.018Z,9.52
2019-04-16T03:18:16.325Z,9.55
2019-04-16T03:19:10.664Z,9.57
2019-04-16T03:20:10.672Z,9.52
2019-04-16T03:21:10.679Z,9.55
2019-04-16T03:22:11.098Z,9.51
2019-04-16T03:23:10.977Z,9.52
2019-04-16T03:24:10.973Z,9.49
2019-04-16T03:25:14.849Z,9.49
2019-04-16T03:26:10.639Z,9.49
2019-04-16T03:27:10.618Z,9.48
2019-04-16T03:28:10.649Z,9.47
2019-04-16T03:29:10.641Z,9.44
2019-04-16T03:30:10.659Z,9.44
2019-04-16T03:31:23.813Z,9.44
2019-04-16T03:32:15.845Z,9.45
2019-04-16T03:33:16.482Z,9.47
2019-04-16T03:34:10.970Z,9.42
2019-04-16T03:35:10.653Z,9.44
2019-04-16T03:36:10.621Z,9.42
2019-04-16T03:37:10.627Z,9.41
2019-04-16T03:38:10.619Z,9.41
2019-04-16T03:39:14.317Z,9.41
2019-04-16T03:40:24.593Z,9.42
2019-04-16T03:41:10.905Z,9.41
2019-04-16T03:42:10.627Z,9.38
2019-04-16T03:43:10.626Z,9.4
2019-04-16T03:44:10.643Z,9.38
2019-04-16T03:45:10.649Z,9.34
2019-04-16T03:46:14.591Z,9.34
2019-04-16T03:47:10.632Z,9.34
2019-04-16T03:48:10.645Z,9.33
2019-04-16T03:49:10.612Z,9.34
2019-04-16T03:50:10.869Z,9.33
2019-04-16T03:51:10.797Z,9.31
2019-04-16T03:52:10.721Z,9.29
2019-04-16T03:53:10.909Z,9.3
2019-04-16T03:54:10.668Z,9.3
2019-04-16T03:55:10.935Z,9.29
2019-04-16T03:56:11.019Z,9.3
2019-04-16T03:57:11.040Z,9.3
2019-04-16T03:58:10.595Z,9.29
2019-04-16T03:59:12.853Z,9.27
2019-04-16T04:00:13.536Z,9.26
2019-04-16T04:01:10.742Z,9.24
2019-04-16T04:02:10.612Z,9.19
2019-04-16T04:03:10.684Z,9.23
2019-04-16T04:04:10.606Z,9.16
2019-04-16T04:05:10.593Z,9.14
2019-04-16T04:06:10.593Z,9.13
2019-04-16T04:07:13.792Z,9.1
2019-04-16T04:08:18.331Z,9.14
2019-04-16T04:09:10.618Z,9.16
2019-04-16T04:10:10.594Z,9.14
2019-04-16T04:11:11.321Z,9.16
2019-04-16T04:12:14.686Z,9.16
2019-04-16T04:13:10.645Z,9.16
2019-04-16T04:14:10.829Z,9.13
2019-04-16T04:15:11.016Z,9.1
2019-04-16T04:16:10.628Z,9.1
2019-04-16T04:17:10.610Z,9.1
2019-04-16T04:18:13.290Z,9.11
2019-04-16T04:19:16.380Z,9.13
2019-04-16T04:20:10.629Z,9.13
2019-04-16T04:21:10.608Z,9.1
2019-04-16T04:22:10.691Z,9.1
2019-04-16T04:23:10.831Z,9.07
2019-04-16T04:24:10.671Z,9.03
2019-04-16T04:25:10.693Z,9.04
2019-04-16T04:26:10.748Z,9.06
2019-04-16T04:27:19.384Z,9.06
2019-04-16T04:28:10.730Z,9.07
2019-04-16T04:29:10.594Z,9.06
2019-04-16T04:30:10.714Z,9.07
2019-04-16T04:31:10.581Z,9.06
2019-04-16T04:32:10.579Z,9.07
2019-04-16T04:33:10.565Z,9.06
2019-04-16T04:34:17.767Z,9.06
2019-04-16T04:35:10.577Z,9.03
2019-04-16T04:36:10.552Z,9.03
2019-04-16T04:37:10.542Z,9.03
2019-04-16T04:38:10.655Z,9.03
2019-04-16T04:39:16.246Z,9.03
2019-04-16T04:40:17.654Z,9.04
2019-04-16T04:41:10.599Z,9.06
2019-04-16T04:42:11.073Z,9.02
2019-04-16T04:43:10.585Z,8.99
2019-04-16T04:44:10.621Z,8.99
2019-04-16T04:45:10.823Z,8.99
2019-04-16T04:46:15.795Z,8.96
2019-04-16T04:47:10.601Z,8.98
2019-04-16T04:48:12.573Z,8.98
2019-04-16T04:49:10.548Z,9.02
2019-04-16T04:50:10.567Z,8.98
2019-04-16T04:51:10.552Z,9.02
2019-04-16T04:52:15.458Z,8.99
2019-04-16T04:53:10.572Z,9
2019-04-16T04:54:10.578Z,9.02
2019-04-16T04:55:10.533Z,9.02
2019-04-16T04:56:10.555Z,9.03
2019-04-16T04:57:10.592Z,9.02
2019-04-16T04:58:10.536Z,9.04
2019-04-16T04:59:10.649Z,9.03
2019-04-16T05:00:11.598Z,9.03
2019-04-16T05:01:14.416Z,9.06
2019-04-16T05:02:15.986Z,9.04
2019-04-16T05:03:16.829Z,9.07
2019-04-16T05:04:10.532Z,9.03
2019-04-16T05:05:11.049Z,9.03
2019-04-16T05:06:10.933Z,8.98
2019-04-16T05:07:10.552Z,8.93
2019-04-16T05:08:10.628Z,8.95
2019-04-16T05:09:10.563Z,8.98
2019-04-16T05:10:10.823Z,8.96
2019-04-16T05:11:17.130Z,8.96
2019-04-16T05:12:10.504Z,8.98
2019-04-16T05:13:10.527Z,8.98
2019-04-16T05:14:10.500Z,8.99
2019-04-16T05:15:10.491Z,8.98
2019-04-16T05:16:10.567Z,8.96
2019-04-16T05:17:10.600Z,8.98
2019-04-16T05:18:11.154Z,8.99
2019-04-16T05:19:15.846Z,8.99
2019-04-16T05:20:16.796Z,8.99
2019-04-16T05:21:10.524Z,8.96
2019-04-16T05:22:10.582Z,9
2019-04-16T05:23:10.499Z,8.99
2019-04-16T05:24:10.501Z,8.99
2019-04-16T05:25:10.533Z,9
2019-04-16T05:26:10.660Z,9
2019-04-16T05:27:10.522Z,9
2019-04-16T05:28:13.523Z,8.99
2019-04-16T05:29:10.498Z,9
2019-04-16T05:30:10.505Z,9
2019-04-16T05:31:10.549Z,9
2019-04-16T05:32:10.471Z,9.06
2019-04-16T05:33:10.537Z,9.04
2019-04-16T05:34:10.780Z,9.07
2019-04-16T05:35:11.308Z,9.06
2019-04-16T05:36:15.650Z,9.07
2019-04-16T05:37:10.969Z,9.07
2019-04-16T05:38:10.505Z,9.07
2019-04-16T05:39:10.453Z,9.09
2019-04-16T05:40:10.459Z,9.11
2019-04-16T05:41:22.358Z,9.11
2019-04-16T05:42:10.455Z,9.13
2019-04-16T05:43:10.494Z,9.13
2019-04-16T05:44:10.462Z,9.14
2019-04-16T05:45:10.460Z,9.16
2019-04-16T05:46:10.519Z,9.19
2019-04-16T05:47:10.452Z,9.2
2019-04-16T05:48:11.558Z,9.21
2019-04-16T05:49:11.588Z,9.21
2019-04-16T05:50:10.493Z,9.23
2019-04-16T05:51:10.442Z,9.26
2019-04-16T05:52:10.458Z,9.26
2019-04-16T05:53:14.003Z,9.27
2019-04-16T05:54:13.646Z,9.29
2019-04-16T05:55:10.479Z,9.29
2019-04-16T05:56:10.435Z,9.31
2019-04-16T05:57:10.459Z,9.31
2019-04-16T05:58:10.466Z,9.3
2019-04-16T05:59:10.511Z,9.34
2019-04-16T06:00:10.724Z,9.34
2019-04-16T06:01:14.486Z,9.38
2019-04-16T06:02:10.526Z,9.4
2019-04-16T06:03:10.455Z,9.42
2019-04-16T06:04:10.458Z,9.44
2019-04-16T06:05:10.514Z,9.44
2019-04-16T06:06:10.492Z,9.47
2019-04-16T06:07:10.433Z,9.48
2019-04-16T06:08:10.542Z,9.45
2019-04-16T06:09:13.650Z,9.45
2019-04-16T06:10:10.466Z,9.49
2019-04-16T06:11:10.492Z,9.51
2019-04-16T06:12:10.387Z,9.54
2019-04-16T06:13:13.498Z,9.58
2019-04-16T06:14:10.412Z,9.59
2019-04-16T06:15:10.431Z,9.58
2019-04-16T06:16:10.427Z,9.63
2019-04-16T06:17:10.433Z,9.62
2019-04-16T06:18:10.408Z,9.63
2019-04-16T06:19:12.305Z,9.63
2019-04-16T06:20:10.397Z,9.66
2019-04-16T06:21:10.460Z,9.69
2019-04-16T06:22:10.468Z,9.7
2019-04-16T06:23:10.419Z,9.72
2019-04-16T06:24:10.440Z,9.72
2019-04-16T06:25:11.420Z,9.72
2019-04-16T06:26:17.211Z,9.73
2019-04-16T06:27:10.422Z,9.76
2019-04-16T06:28:10.397Z,9.79
2019-04-16T06:29:10.387Z,9.79
2019-04-16T06:30:10.475Z,9.79
2019-04-16T06:31:10.586Z,9.81
2019-04-16T06:32:12.342Z,9.82
2019-04-16T06:33:10.405Z,9.83
2019-04-16T06:34:10.856Z,9.82
2019-04-16T06:35:11.562Z,9.86
2019-04-16T06:36:10.484Z,9.88
2019-04-16T06:37:10.431Z,9.88
2019-04-16T06:38:10.458Z,9.92
2019-04-16T06:39:10.416Z,9.94
2019-04-16T06:40:10.403Z,9.94
2019-04-16T06:41:10.426Z,9.94
2019-04-16T06:42:10.400Z,9.94
2019-04-16T06:43:10.358Z,9.99
2019-04-16T06:44:10.371Z,10.02
2019-04-16T06:45:10.333Z,10.03
2019-04-16T06:46:10.456Z,10.04
2019-04-16T06:47:14.489Z,10.07
2019-04-16T06:48:14.034Z,10.1
2019-04-16T06:49:10.388Z,10.11
2019-04-16T06:50:10.417Z,10.11
2019-04-16T06:51:12.785Z,10.14
2019-04-16T06:52:18.167Z,10.13
2019-04-16T06:53:10.486Z,10.16
2019-04-16T06:54:11.453Z,10.16
2019-04-16T06:55:10.364Z,10.19
2019-04-16T06:56:10.364Z,10.19
2019-04-16T06:57:12.965Z,10.19
2019-04-16T06:58:18.316Z,10.19
2019-04-16T06:59:10.412Z,10.23
2019-04-16T07:00:10.392Z,10.2
2019-04-16T07:01:10.337Z,10.21
2019-04-16T07:02:11.348Z,10.25
2019-04-16T07:03:10.344Z,10.25
2019-04-16T07:04:10.395Z,10.3
2019-04-16T07:05:10.344Z,10.34
2019-04-16T07:06:10.334Z,10.34
2019-04-16T07:07:10.346Z,10.38
2019-04-16T07:08:10.360Z,10.38
2019-04-16T07:09:10.347Z,10.37
2019-04-16T07:10:10.383Z,10.39
2019-04-16T07:11:10.374Z,10.45
2019-04-16T07:12:10.363Z,10.45
2019-04-16T07:13:11.624Z,10.49
2019-04-16T07:14:16.947Z,10.49
2019-04-16T07:15:10.451Z,10.53
2019-04-16T07:16:10.320Z,10.52
2019-04-16T07:17:10.338Z,10.55
2019-04-16T07:18:10.380Z,10.55
2019-04-16T07:19:11.774Z,10.59
2019-04-16T07:20:14.401Z,10.61
2019-04-16T07:21:10.396Z,10.59
2019-04-16T07:22:10.297Z,10.64
2019-04-16T07:23:10.353Z,10.71
2019-04-16T07:24:10.468Z,10.71
2019-04-16T07:25:10.450Z,10.78
2019-04-16T07:26:15.549Z,10.83
2019-04-16T07:27:11.425Z,10.83
2019-04-16T07:28:10.325Z,10.87
2019-04-16T07:29:11.040Z,10.93
2019-04-16T07:30:10.563Z,11
2019-04-16T07:32:10.858Z,11.04
2019-04-16T07:33:10.281Z,11.07
2019-04-16T07:34:10.392Z,11.11
2019-04-16T07:34:34.810Z,11.03
2019-04-16T07:35:10.549Z,11.12
2019-04-16T07:36:10.498Z,11.17
2019-04-16T07:37:10.297Z,11.24
2019-04-16T07:38:12.172Z,11.24
2019-04-16T07:39:29.466Z,11.32
2019-04-16T07:40:10.769Z,11.37
2019-04-16T07:41:12.595Z,11.41
2019-04-16T07:42:22.265Z,11.48
2019-04-16T07:43:10.530Z,11.51
2019-04-16T07:44:11.462Z,11.49
2019-04-16T07:45:13.362Z,11.49
2019-04-16T07:46:10.294Z,11.49
2019-04-16T07:47:10.351Z,11.51
2019-04-16T07:48:10.295Z,11.52
2019-04-16T07:49:10.324Z,11.54
2019-04-16T07:50:10.261Z,11.52
2019-04-16T07:51:10.311Z,11.56
2019-04-16T07:52:12.573Z,11.65
2019-04-16T07:53:14.627Z,11.7
2019-04-16T07:54:10.255Z,11.73
2019-04-16T07:55:10.619Z,11.75
2019-04-16T07:56:10.339Z,11.76
2019-04-16T07:57:10.329Z,11.75
2019-04-16T07:58:10.636Z,11.76
2019-04-16T07:59:10.318Z,11.76
2019-04-16T08:00:10.328Z,11.75
2019-04-16T08:01:16.614Z,11.73
2019-04-16T08:02:10.281Z,11.77
2019-04-16T08:03:10.261Z,11.8
2019-04-16T08:04:10.296Z,11.84
2019-04-16T08:05:10.328Z,11.93
2019-04-16T08:06:14.613Z,11.94
2019-04-16T08:07:10.251Z,11.94
2019-04-16T08:08:10.285Z,11.96
2019-04-16T08:09:10.250Z,12.01
2019-04-16T08:10:10.257Z,11.97
2019-04-16T08:11:10.263Z,12
2019-04-16T08:12:30.825Z,12
2019-04-16T08:13:14.271Z,12.04
2019-04-16T08:14:10.589Z,12.05
2019-04-16T08:15:15.649Z,12.1
2019-04-16T08:16:10.239Z,12.14
2019-04-16T08:17:10.257Z,12.17
2019-04-16T08:18:10.266Z,12.25
2019-04-16T08:19:16.311Z,12.32
2019-04-16T08:20:10.704Z,12.35
2019-04-16T08:21:12.622Z,12.32
2019-04-16T08:22:16.833Z,12.37
2019-04-16T08:23:10.290Z,12.32
2019-04-16T08:24:10.284Z,12.38
2019-04-16T08:25:10.255Z,12.45
2019-04-16T08:26:14.075Z,12.48
2019-04-16T08:27:11.002Z,12.53
2019-04-16T08:28:10.316Z,12.6
2019-04-16T08:29:10.513Z,12.63
2019-04-16T08:30:10.212Z,12.65
2019-04-16T08:31:13.440Z,12.67
2019-04-16T08:32:17.023Z,12.65
2019-04-16T08:33:11.875Z,12.65
2019-04-16T08:34:11.108Z,12.67
2019-04-16T08:35:10.313Z,12.67
2019-04-16T08:36:10.224Z,12.67
2019-04-16T08:37:10.230Z,12.69
2019-04-16T08:38:10.240Z,12.67
2019-04-16T08:39:10.317Z,12.7
2019-04-16T08:40:13.211Z,12.73
2019-04-16T08:41:13.477Z,12.79
2019-04-16T08:42:10.201Z,12.8
2019-04-16T08:43:10.280Z,12.82
2019-04-16T08:44:10.914Z,12.82
2019-04-16T08:45:10.456Z,12.84
2019-04-16T08:46:12.026Z,12.93
2019-04-16T08:47:13.189Z,12.94
2019-04-16T08:48:10.404Z,13
2019-04-16T08:49:10.237Z,13.03
2019-04-16T08:50:12.749Z,12.97
2019-04-16T08:51:10.264Z,13.01
2019-04-16T08:52:11.493Z,13.01
2019-04-16T08:53:14.509Z,13.06
2019-04-16T08:54:10.200Z,13.04
2019-04-16T08:55:10.286Z,13.1
2019-04-16T08:56:10.186Z,13.13
2019-04-16T08:57:10.486Z,13.19
2019-04-16T08:58:13.018Z,13.25
2019-04-16T08:59:11.786Z,13.25
2019-04-16T09:00:15.595Z,13.32
2019-04-16T09:01:10.185Z,13.34
2019-04-16T09:02:10.883Z,13.35
2019-04-16T09:03:10.645Z,13.43
2019-04-16T09:05:11.971Z,13.47
2019-04-16T09:06:14.395Z,13.52
2019-04-16T09:07:19.791Z,13.53
2019-04-16T09:08:14.303Z,13.56
2019-04-16T09:09:18.533Z,13.59
2019-04-16T09:10:23.899Z,13.64
2019-04-16T09:11:24.082Z,13.69
2019-04-16T09:12:10.313Z,13.73
2019-04-16T09:13:10.159Z,13.76
2019-04-16T09:14:10.256Z,13.77
2019-04-16T09:15:10.307Z,13.77
2019-04-16T09:16:11.241Z,13.79
2019-04-16T09:17:10.603Z,13.83
2019-04-16T09:18:10.173Z,13.87
2019-04-16T09:19:10.147Z,13.91
2019-04-16T09:20:10.150Z,13.96
2019-04-16T09:21:12.034Z,14.02
2019-04-16T09:22:17.235Z,14.07
2019-04-16T09:23:10.184Z,14.14
2019-04-16T09:24:10.493Z,14.22
2019-04-16T09:25:14.313Z,14.31
2019-04-16T09:26:22.752Z,14.31
2019-04-16T09:27:14.168Z,14.33
2019-04-16T09:28:26.535Z,14.38
2019-04-16T09:29:10.583Z,14.43
2019-04-16T09:30:18.073Z,14.48
2019-04-16T09:31:10.488Z,14.51
2019-04-16T09:32:10.215Z,14.49
2019-04-16T09:33:10.127Z,14.52
2019-04-16T09:34:10.143Z,14.56
2019-04-16T09:35:20.370Z,14.56
2019-04-16T09:36:10.150Z,14.59
2019-04-16T09:37:10.257Z,14.6
2019-04-16T09:38:13.492Z,14.67
2019-04-16T09:39:11.227Z,14.73
2019-04-16T09:40:18.690Z,14.76
2019-04-16T09:41:10.193Z,14.77
2019-04-16T09:42:10.177Z,14.79
2019-04-16T09:43:18.564Z,14.84
2019-04-16T09:44:10.214Z,14.9
2019-04-16T09:45:10.242Z,14.87
2019-04-16T09:46:46.533Z,14.81
2019-04-16T09:47:10.129Z,14.84
2019-04-16T09:48:10.178Z,14.86
2019-04-16T09:49:10.115Z,14.84
2019-04-16T09:50:11.706Z,14.9
2019-04-16T09:51:10.139Z,14.97
2019-04-16T09:52:10.191Z,14.98
2019-04-16T09:53:10.212Z,15.02
2019-04-16T09:54:14.313Z,15.07
2019-04-16T09:55:10.126Z,15.01
2019-04-16T09:56:10.128Z,15.07
2019-04-16T09:57:10.133Z,15.05
2019-04-16T09:58:10.221Z,15.09
2019-04-16T09:59:16.437Z,15.14
2019-04-16T10:00:10.217Z,15.14
2019-04-16T10:01:10.108Z,15.14
2019-04-16T10:02:10.233Z,15.17
2019-04-16T10:03:10.303Z,15.19
2019-04-16T10:04:10.247Z,15.17
2019-04-16T10:05:10.191Z,15.19
2019-04-16T10:06:10.168Z,15.26
2019-04-16T10:07:10.295Z,15.29
2019-04-16T10:08:13.951Z,15.35
2019-04-16T10:09:10.168Z,15.36
2019-04-16T10:10:10.090Z,15.45
2019-04-16T10:11:10.124Z,15.47
2019-04-16T10:12:10.110Z,15.5
2019-04-16T10:13:10.164Z,15.49
2019-04-16T10:14:10.194Z,15.52
2019-04-16T10:15:10.101Z,15.52
2019-04-16T10:16:10.137Z,15.59
2019-04-16T10:17:10.133Z,15.62
2019-04-16T10:18:10.109Z,15.66
2019-04-16T10:19:10.092Z,15.73
2019-04-16T10:20:10.225Z,15.77
2019-04-16T10:21:10.157Z,15.77
2019-04-16T10:22:10.128Z,15.77
2019-04-16T10:23:10.160Z,15.78
2019-04-16T10:24:14.127Z,15.8
2019-04-16T10:25:10.079Z,15.84
2019-04-16T10:26:10.140Z,15.82
2019-04-16T10:27:10.132Z,15.64
2019-04-16T10:28:10.151Z,15.76
2019-04-16T10:29:10.254Z,15.8
2019-04-16T10:30:10.112Z,15.87
2019-04-16T10:31:10.082Z,15.9
2019-04-16T10:32:10.208Z,16.01
2019-04-16T10:33:10.115Z,16.04
2019-04-16T10:34:10.069Z,16.11
2019-04-16T10:35:10.117Z,16.14
2019-04-16T10:36:10.194Z,16.14
2019-04-16T10:37:10.057Z,16.11
2019-04-16T10:38:10.094Z,16.12
2019-04-16T10:39:10.133Z,16.18
2019-04-16T10:40:10.183Z,16.16
2019-04-16T10:41:10.369Z,16.19
2019-04-16T10:42:10.164Z,16.19
2019-04-16T10:43:10.087Z,16.21
2019-04-16T10:44:10.041Z,16.26
2019-04-16T10:45:10.118Z,16.26
2019-04-16T10:46:10.185Z,16.14
2019-04-16T10:47:12.759Z,16.11
2019-04-16T10:48:10.080Z,16.16
2019-04-16T10:49:10.109Z,16.22
2019-04-16T10:50:10.145Z,16.29
2019-04-16T10:51:16.354Z,16.32
2019-04-16T10:52:10.032Z,16.37
2019-04-16T10:53:10.100Z,16.35
2019-04-16T10:54:10.064Z,16.31
2019-04-16T10:55:13.091Z,16.39
2019-04-16T10:56:10.088Z,16.45
2019-04-16T10:57:10.732Z,16.49
2019-04-16T10:58:10.068Z,16.56
2019-04-16T10:59:10.186Z,16.47
2019-04-16T11:00:10.047Z,16.36
2019-04-16T11:01:10.166Z,16.4
2019-04-16T11:02:11.100Z,16.49
2019-04-16T11:03:10.053Z,16.49
2019-04-16T11:04:10.100Z,16.39
2019-04-16T11:05:10.028Z,16.19
2019-04-16T11:06:10.012Z,16.18
2019-04-16T11:07:10.086Z,16.19
2019-04-16T11:08:10.175Z,16.11
2019-04-16T11:09:10.022Z,16.16
2019-04-16T11:10:12.258Z,16.29
2019-04-16T11:11:10.061Z,16.37
2019-04-16T11:12:10.043Z,16.47
2019-04-16T11:13:10.143Z,16.54
2019-04-16T11:14:10.064Z,16.64
2019-04-16T11:15:10.045Z,16.71
2019-04-16T11:16:10.067Z,16.77
2019-04-16T11:17:10.040Z,16.84
2019-04-16T11:18:10.106Z,16.84
2019-04-16T11:19:10.031Z,16.87
2019-04-16T11:20:10.058Z,16.81
2019-04-16T11:21:10.129Z,16.83
2019-04-16T11:22:10.022Z,16.78
2019-04-16T11:23:10.397Z,16.77
2019-04-16T11:24:10.529Z,16.78
2019-04-16T11:25:10.080Z,16.86
2019-04-16T11:26:09.963Z,17.04
2019-04-16T11:27:10.024Z,17.04
2019-04-16T11:28:10.097Z,16.91
2019-04-16T11:29:10.058Z,16.86
2019-04-16T11:30:10.092Z,16.92
2019-04-16T11:31:10.049Z,17.05
2019-04-16T11:32:10.055Z,17.12
2019-04-16T11:33:10.089Z,17.22
2019-04-16T11:34:10.144Z,17.25
2019-04-16T11:35:19.459Z,17.21
2019-04-16T11:36:21.113Z,17.25
2019-04-16T11:37:10.070Z,17.25
2019-04-16T11:38:10.522Z,17.21
2019-04-16T11:39:10.319Z,17.15
2019-04-16T11:40:10.065Z,17.11
2019-04-16T11:41:10.035Z,17.16
2019-04-16T11:42:10.038Z,17.22
2019-04-16T11:43:10.053Z,17.26
2019-04-16T11:44:17.499Z,17.32
2019-04-16T11:45:10.228Z,17.25
2019-04-16T11:46:10.035Z,17.19
2019-04-16T11:47:09.997Z,17.15
2019-04-16T11:48:10.049Z,17.16
2019-04-16T11:49:10.079Z,17.19
2019-04-16T11:50:10.035Z,17.14
2019-04-16T11:51:10.276Z,17.25
2019-04-16T11:52:10.074Z,17.29
2019-04-16T11:53:10.368Z,17.4
2019-04-16T11:54:12.567Z,17.49
2019-04-16T11:55:10.089Z,17.6
2019-04-16T11:56:10.049Z,17.66
2019-04-16T11:57:14.139Z,17.71
2019-04-16T11:58:10.027Z,17.67
2019-04-16T11:59:10.093Z,17.73
2019-04-16T12:00:10.084Z,17.82
2019-04-16T12:01:10.366Z,17.88
2019-04-16T12:02:10.167Z,17.95
2019-04-16T12:03:10.330Z,17.98
2019-04-16T12:04:17.059Z,18.08
2019-04-16T12:05:10.102Z,18.12
2019-04-16T12:06:10.525Z,18.23
2019-04-16T12:07:10.435Z,18.17
2019-04-16T12:08:10.012Z,18.17
2019-04-16T12:09:10.002Z,18.12
2019-04-16T12:10:10.017Z,18.11
2019-04-16T12:11:10.026Z,18.2
2019-04-16T12:12:09.950Z,18.23
2019-04-16T12:13:10.059Z,18.2
2019-04-16T12:14:10.848Z,18.12
2019-04-16T12:15:10.093Z,18.04
2019-04-16T12:16:10.679Z,18.12
2019-04-16T12:17:10.037Z,18.2
2019-04-16T12:18:09.991Z,18.05
2019-04-16T12:19:10.365Z,18.11
2019-04-16T12:20:09.973Z,18.01
2019-04-16T12:21:10.369Z,17.97
2019-04-16T12:22:10.039Z,17.89
2019-04-16T12:23:09.985Z,18.02
2019-04-16T12:24:10.000Z,18.12
2019-04-16T12:25:09.987Z,18.17
2019-04-16T12:26:10.622Z,18.29
2019-04-16T12:27:09.998Z,18.36
2019-04-16T12:28:13.293Z,18.4
2019-04-16T12:29:10.249Z,18.44
2019-04-16T12:30:10.333Z,18.36
2019-04-16T12:31:09.952Z,18.12
2019-04-16T12:32:09.967Z,18.15
2019-04-16T12:33:14.966Z,18.25
2019-04-16T12:34:10.290Z,18.26
2019-04-16T12:35:10.368Z,18.26
2019-04-16T12:36:15.098Z,18.3
2019-04-16T12:37:10.152Z,18.39
2019-04-16T12:38:18.874Z,18.49
2019-04-16T12:39:10.326Z,18.59
2019-04-16T12:40:09.869Z,18.68
2019-04-16T12:41:10.042Z,18.74
2019-04-16T12:42:10.020Z,18.75
2019-04-16T12:43:16.636Z,18.77
2019-04-16T12:44:09.921Z,18.8
2019-04-16T12:45:10.184Z,18.84
2019-04-16T12:46:10.154Z,18.89
2019-04-16T12:47:10.128Z,18.88
2019-04-16T12:48:10.061Z,18.97
2019-04-16T12:49:09.998Z,19.01
2019-04-16T12:50:10.311Z,19.01
2019-04-16T12:51:09.977Z,19.01
2019-04-16T12:52:17.724Z,19.09
2019-04-16T12:53:09.995Z,19.03
2019-04-16T12:54:10.127Z,19.15
2019-04-16T12:55:09.974Z,19.16
2019-04-16T12:56:10.024Z,19.19
2019-04-16T12:57:16.699Z,18.89
2019-04-16T12:58:09.886Z,18.56
2019-04-16T12:59:09.846Z,18.42
2019-04-16T13:00:09.850Z,18.5
2019-04-16T13:01:09.932Z,18.46
2019-04-16T13:02:14.283Z,18.57
2019-04-16T13:03:09.902Z,18.68
2019-04-16T13:04:09.836Z,18.82
2019-04-16T13:05:09.866Z,18.92
2019-04-16T13:06:09.900Z,18.87